Time;durP1;ratioP1;P1;durP2;ratioP2;P2;SDS_P1;SDS_P2;PMS_P1;PMS_P2;Temp;Humidity;BMP_temperature;BMP_pressure;BME280_temperature;BME280_humidity;BME280_pressure;Samples;Min_cycle;Max_cycle;Signal;HPM_P1;HPM_P2
2022/01/03 00:00:52;;;;;;;234.45;117.15;;;;;;;;;;5035221;28;20052;-49
2022/01/03 00:03:19;;;;;;;214.15;110.03;;;;;;;;;;5034579;28;20353;-52
2022/01/03 00:05:45;;;;;;;197.10;105.53;;;;;;;;;;5034535;28;20479;-51
2022/01/03 00:08:11;;;;;;;186.73;94.32;;;;;;;;;;5034710;28;20026;-52
2022/01/03 00:10:37;;;;;;;188.43;91.35;;;;;;;;;;5034387;28;20112;-52
2022/01/03 00:13:04;;;;;;;181.07;92.97;;;;;;;;;;5034662;28;20036;-55
2022/01/03 00:15:30;;;;;;;197.38;95.45;;;;;;;;;;5034943;28;20021;-52
2022/01/03 00:17:56;;;;;;;186.27;94.45;;;;;;;;;;5033496;28;20036;-53
2022/01/03 00:20:23;;;;;;;188.43;93.43;;;;;;;;;;5034726;28;20061;-53
2022/01/03 00:22:52;;;;;;;209.68;106.68;;;;;;;;;;5034489;28;20499;-51
2022/01/03 00:25:20;;;;;;;214.13;106.65;;;;;;;;;;5034274;28;20029;-54
2022/01/03 00:27:50;;;;;;;204.35;105.85;;;;;;;;;;5034742;28;20017;-53
2022/01/03 00:30:19;;;;;;;209.90;110.13;;;;;;;;;;5035002;28;20026;-53
2022/01/03 00:32:46;;;;;;;212.25;109.88;;;;;;;;;;5034558;28;20371;-55
2022/01/03 00:35:14;;;;;;;208.60;107.88;;;;;;;;;;5034568;28;20026;-53
2022/01/03 00:37:43;;;;;;;192.45;102.53;;;;;;;;;;5034049;28;20021;-51
2022/01/03 00:40:10;;;;;;;207.52;106.45;;;;;;;;;;5034047;28;20380;-53
2022/01/03 00:42:36;;;;;;;193.40;100.70;;;;;;;;;;5033686;28;20053;-51
2022/01/03 00:45:03;;;;;;;177.05;94.90;;;;;;;;;;5033485;28;20468;-50
2022/01/03 00:47:33;;;;;;;165.85;89.85;;;;;;;;;;5033489;28;20033;-51
2022/01/03 00:50:01;;;;;;;176.43;90.90;;;;;;;;;;5033410;28;20534;-51
2022/01/03 00:52:27;;;;;;;167.70;89.25;;;;;;;;;;5033782;28;20036;-50
2022/01/03 00:54:53;;;;;;;196.77;100.97;;;;;;;;;;5033938;28;20032;-51
2022/01/03 00:57:24;;;;;;;210.13;104.75;;;;;;;;;;5033635;28;20431;-49
2022/01/03 00:59:56;;;;;;;211.80;106.22;;;;;;;;;;5033608;28;20022;-48
2022/01/03 01:02:22;;;;;;;200.35;104.53;;;;;;;;;;5034008;28;20018;-50
2022/01/03 01:04:49;;;;;;;194.20;97.35;;;;;;;;;;5033502;28;20022;-51
2022/01/03 01:07:17;;;;;;;181.77;90.53;;;;;;;;;;5033824;28;20091;-49
2022/01/03 01:09:50;;;;;;;167.02;86.35;;;;;;;;;;5033138;28;20441;-50
2022/01/03 01:12:17;;;;;;;241.05;124.95;;;;;;;;;;5032995;28;20041;-49
2022/01/03 01:14:44;;;;;;;248.38;130.77;;;;;;;;;;5033946;28;20124;-49
2022/01/03 01:17:10;;;;;;;268.90;134.60;;;;;;;;;;5033293;28;20031;-49
2022/01/03 01:19:36;;;;;;;283.20;144.98;;;;;;;;;;5033689;28;20049;-51
2022/01/03 01:22:02;;;;;;;279.42;137.93;;;;;;;;;;5033826;28;20025;-50
2022/01/03 01:24:34;;;;;;;258.88;130.77;;;;;;;;;;5033287;28;20049;-50
2022/01/03 01:29:45;;;;;;;254.00;132.25;;;;;;;;;;5033295;28;20112;-54
2022/01/03 01:32:13;;;;;;;225.40;117.15;;;;;;;;;;5033356;28;20054;-54
2022/01/03 01:34:41;;;;;;;230.63;114.47;;;;;;;;;;5033119;28;20017;-53
2022/01/03 01:37:08;;;;;;;222.60;119.22;;;;;;;;;;5033857;28;20419;-54
2022/01/03 01:39:34;;;;;;;226.68;118.10;;;;;;;;;;5033424;28;20025;-53
2022/01/03 01:42:03;;;;;;;231.63;118.72;;;;;;;;;;5033102;28;20056;-55
2022/01/03 01:44:32;;;;;;;224.13;116.82;;;;;;;;;;5033105;28;20384;-55
2022/01/03 01:47:02;;;;;;;243.25;120.25;;;;;;;;;;5033198;28;20159;-54
2022/01/03 01:49:28;;;;;;;243.80;121.15;;;;;;;;;;5033053;28;20021;-55
2022/01/03 01:51:59;;;;;;;232.70;120.93;;;;;;;;;;5032964;28;20041;-54
2022/01/03 01:54:30;;;;;;;236.88;119.53;;;;;;;;;;5033051;28;20071;-54
2022/01/03 01:57:02;;;;;;;222.57;118.22;;;;;;;;;;5033219;28;20025;-50
2022/01/03 01:59:34;;;;;;;220.30;113.93;;;;;;;;;;5033600;28;20112;-51
2022/01/03 02:02:08;;;;;;;234.88;115.47;;;;;;;;;;5036621;28;20025;-50
2022/01/03 02:04:35;;;;;;;223.88;112.25;;;;;;;;;;5037445;28;20022;-56
2022/01/03 02:07:17;;;;;;;210.27;111.47;;;;;;;;;;5037342;28;20068;-50
2022/01/03 02:09:45;;;;;;;209.63;111.57;;;;;;;;;;5036876;28;20026;-51
2022/01/03 02:12:16;;;;;;;218.73;111.10;;;;;;;;;;5037120;28;20071;-52
2022/01/03 02:14:43;;;;;;;211.25;109.30;;;;;;;;;;5036785;28;20100;-54
2022/01/03 02:17:09;;;;;;;224.38;114.53;;;;;;;;;;5037167;28;20030;-52
2022/01/03 02:19:39;;;;;;;231.00;114.88;;;;;;;;;;5037160;28;20115;-54
2022/01/03 02:22:05;;;;;;;225.20;115.13;;;;;;;;;;5036159;28;20071;-50
2022/01/03 02:24:31;;;;;;;238.85;118.95;;;;;;;;;;5037074;28;20026;-51
2022/01/03 02:27:01;;;;;;;250.18;123.85;;;;;;;;;;5036648;28;20036;-55
2022/01/03 02:29:27;;;;;;;251.43;121.28;;;;;;;;;;5036303;28;20105;-54
2022/01/03 02:31:54;;;;;;;244.25;123.32;;;;;;;;;;5036488;28;20029;-54
2022/01/03 02:34:20;;;;;;;230.95;117.47;;;;;;;;;;5036556;28;20026;-55
2022/01/03 02:36:47;;;;;;;219.77;112.55;;;;;;;;;;5036297;28;20108;-54
2022/01/03 02:39:14;;;;;;;214.30;106.38;;;;;;;;;;5036466;28;20072;-52
2022/01/03 02:41:40;;;;;;;199.15;103.50;;;;;;;;;;5036096;28;20049;-54
2022/01/03 02:44:06;;;;;;;190.63;100.18;;;;;;;;;;5036042;28;20025;-56
2022/01/03 02:46:33;;;;;;;193.80;99.80;;;;;;;;;;5035982;28;20476;-55
2022/01/03 02:48:59;;;;;;;189.48;99.28;;;;;;;;;;5036044;28;20435;-56
2022/01/03 02:51:25;;;;;;;184.75;101.38;;;;;;;;;;5035685;28;20473;-52
2022/01/03 02:53:51;;;;;;;186.68;99.80;;;;;;;;;;5036010;28;20492;-52
2022/01/03 02:56:17;;;;;;;191.15;96.35;;;;;;;;;;5035927;28;20468;-54
2022/01/03 02:58:43;;;;;;;160.50;82.00;;;;;;;;;;5035845;28;20061;-49
2022/01/03 03:01:09;;;;;;;237.48;116.75;;;;;;;;;;5036129;28;20061;-52
2022/01/03 03:03:36;;;;;;;224.88;111.40;;;;;;;;;;5036120;28;20084;-53
2022/01/03 03:06:02;;;;;;;215.55;108.65;;;;;;;;;;5035480;28;20095;-53
2022/01/03 03:08:28;;;;;;;205.65;107.85;;;;;;;;;;5035782;28;20025;-55
2022/01/03 03:10:54;;;;;;;215.65;104.57;;;;;;;;;;5035074;28;20041;-52
2022/01/03 03:13:22;;;;;;;236.82;118.03;;;;;;;;;;5035487;28;20480;-52
2022/01/03 03:15:49;;;;;;;219.43;110.97;;;;;;;;;;5035927;28;20025;-50
2022/01/03 03:18:15;;;;;;;195.25;101.65;;;;;;;;;;5035559;28;20480;-55
2022/01/03 03:20:43;;;;;;;177.18;97.13;;;;;;;;;;5035409;28;20177;-50
2022/01/03 03:23:10;;;;;;;193.70;97.18;;;;;;;;;;5035725;28;20026;-55
2022/01/03 03:25:36;;;;;;;173.32;91.18;;;;;;;;;;5035423;28;20049;-55
2022/01/03 03:28:05;;;;;;;170.80;90.60;;;;;;;;;;5035691;28;20494;-49
2022/01/03 03:30:32;;;;;;;173.23;91.00;;;;;;;;;;5035241;28;20049;-53
2022/01/03 03:33:07;;;;;;;160.93;82.38;;;;;;;;;;5034859;28;20076;-52
2022/01/03 03:35:33;;;;;;;150.27;81.10;;;;;;;;;;5035695;28;20100;-56
2022/01/03 03:38:00;;;;;;;166.10;79.15;;;;;;;;;;5035449;28;20037;-53
2022/01/03 03:40:26;;;;;;;135.20;69.20;;;;;;;;;;5035142;28;20022;-52
2022/01/03 03:42:52;;;;;;;150.30;75.70;;;;;;;;;;5035533;28;20053;-52
2022/01/03 03:45:19;;;;;;;156.25;78.70;;;;;;;;;;5035518;28;20025;-51
2022/01/03 03:47:45;;;;;;;104.10;52.35;;;;;;;;;;5034918;28;20446;-55
2022/01/03 03:50:11;;;;;;;149.95;73.28;;;;;;;;;;5035107;28;20044;-53
2022/01/03 03:52:37;;;;;;;126.35;66.45;;;;;;;;;;5035461;28;20108;-54
2022/01/03 03:55:04;;;;;;;155.43;84.95;;;;;;;;;;5034758;28;20025;-56
2022/01/03 03:57:30;;;;;;;101.40;49.35;;;;;;;;;;5035010;28;20024;-53
2022/01/03 03:59:57;;;;;;;83.45;44.38;;;;;;;;;;5034481;28;20013;-56
2022/01/03 04:02:23;;;;;;;104.78;52.70;;;;;;;;;;5035239;28;20033;-55
2022/01/03 04:04:49;;;;;;;86.88;44.83;;;;;;;;;;5035002;28;20030;-56
2022/01/03 04:07:15;;;;;;;77.53;40.35;;;;;;;;;;5034419;28;20028;-50
2022/01/03 04:09:41;;;;;;;91.88;46.63;;;;;;;;;;5034816;28;20424;-54
2022/01/03 04:12:08;;;;;;;138.30;71.63;;;;;;;;;;5034761;28;20134;-54
2022/01/03 04:14:34;;;;;;;139.75;73.07;;;;;;;;;;5034412;28;20037;-53
2022/01/03 04:17:00;;;;;;;142.27;75.57;;;;;;;;;;5016866;28;20377;-55
2022/01/03 04:19:26;;;;;;;155.75;81.90;;;;;;;;;;5034628;28;20033;-52
2022/01/03 04:21:53;;;;;;;152.10;74.40;;;;;;;;;;5034472;28;20456;-53
2022/01/03 04:24:19;;;;;;;138.13;69.85;;;;;;;;;;5034135;28;20491;-54
2022/01/03 04:26:45;;;;;;;141.52;70.90;;;;;;;;;;5034732;28;20464;-53
2022/01/03 04:29:12;;;;;;;139.55;72.25;;;;;;;;;;5033870;28;20099;-50
2022/01/03 04:31:38;;;;;;;149.73;73.57;;;;;;;;;;5034114;28;20069;-54
2022/01/03 04:34:04;;;;;;;136.48;68.40;;;;;;;;;;5034339;28;20026;-55
2022/01/03 04:36:31;;;;;;;138.27;71.32;;;;;;;;;;5033769;28;20095;-53
2022/01/03 04:38:57;;;;;;;131.00;67.40;;;;;;;;;;5034526;28;20025;-53
2022/01/03 04:41:23;;;;;;;143.43;69.50;;;;;;;;;;5033972;28;20034;-54
2022/01/03 04:43:49;;;;;;;128.20;63.80;;;;;;;;;;5033687;28;20024;-51
2022/01/03 04:46:15;;;;;;;121.50;63.90;;;;;;;;;;5034679;28;20047;-52
2022/01/03 04:48:42;;;;;;;121.43;60.13;;;;;;;;;;5033939;28;20028;-56
2022/01/03 04:51:08;;;;;;;130.88;64.72;;;;;;;;;;5033724;28;20404;-56
2022/01/03 04:53:39;;;;;;;179.85;84.03;;;;;;;;;;5034017;28;20025;-54
2022/01/03 04:56:05;;;;;;;102.65;52.75;;;;;;;;;;5034370;28;20125;-55
2022/01/03 04:58:31;;;;;;;93.80;48.03;;;;;;;;;;5034206;28;20029;-54
2022/01/03 05:00:58;;;;;;;88.50;46.40;;;;;;;;;;5033704;28;20036;-54
2022/01/03 05:03:24;;;;;;;78.75;43.03;;;;;;;;;;5033273;28;20025;-56
2022/01/03 05:05:50;;;;;;;59.97;31.15;;;;;;;;;;5033581;28;20030;-54
2022/01/03 05:08:16;;;;;;;63.13;32.55;;;;;;;;;;5033903;28;20013;-54
2022/01/03 05:10:42;;;;;;;98.20;48.10;;;;;;;;;;5033395;28;20038;-53
2022/01/03 05:13:08;;;;;;;120.60;60.00;;;;;;;;;;5033792;28;20026;-51
2022/01/03 05:15:34;;;;;;;122.18;61.30;;;;;;;;;;5033946;28;20112;-53
2022/01/03 05:18:00;;;;;;;115.65;58.92;;;;;;;;;;5033464;28;20026;-56
2022/01/03 05:20:27;;;;;;;116.85;54.63;;;;;;;;;;5033707;28;20029;-54
2022/01/03 05:22:53;;;;;;;109.03;54.42;;;;;;;;;;5033679;28;20079;-55
2022/01/03 05:25:19;;;;;;;102.22;48.22;;;;;;;;;;5033089;28;20022;-55
2022/01/03 05:27:45;;;;;;;111.35;54.22;;;;;;;;;;5033633;28;20022;-55
2022/01/03 05:30:12;;;;;;;109.15;55.88;;;;;;;;;;5033371;28;20109;-53
2022/01/03 05:32:38;;;;;;;116.57;57.15;;;;;;;;;;5032888;28;20025;-54
2022/01/03 05:35:05;;;;;;;106.18;54.25;;;;;;;;;;5032987;28;20510;-53
2022/01/03 05:37:31;;;;;;;125.05;63.45;;;;;;;;;;5032931;28;20026;-51
2022/01/03 05:39:57;;;;;;;129.48;63.50;;;;;;;;;;5032853;28;20026;-53
2022/01/03 05:42:23;;;;;;;122.35;56.83;;;;;;;;;;5033369;28;20122;-53
2022/01/03 05:44:50;;;;;;;112.70;53.03;;;;;;;;;;5031685;28;20113;-56
2022/01/03 05:47:17;;;;;;;106.00;52.78;;;;;;;;;;5031737;28;20133;-51
2022/01/03 05:49:43;;;;;;;98.20;48.20;;;;;;;;;;5033631;28;20021;-54
2022/01/03 05:52:09;;;;;;;97.60;45.92;;;;;;;;;;5033045;28;20027;-52
2022/01/03 05:54:36;;;;;;;91.30;43.45;;;;;;;;;;5033357;28;20036;-54
2022/01/03 05:57:02;;;;;;;88.35;43.88;;;;;;;;;;5033334;28;20049;-53
2022/01/03 05:59:28;;;;;;;80.32;40.47;;;;;;;;;;5033367;28;20480;-52
2022/01/03 06:01:55;;;;;;;85.50;40.45;;;;;;;;;;5032708;28;20037;-57
2022/01/03 06:04:23;;;;;;;85.10;42.92;;;;;;;;;;5033125;28;20061;-54
2022/01/03 06:07:08;;;;;;;75.50;37.35;;;;;;;;;;5032732;28;20040;-51
2022/01/03 06:09:35;;;;;;;60.60;31.02;;;;;;;;;;5033077;28;20044;-56
2022/01/03 06:12:02;;;;;;;62.95;30.05;;;;;;;;;;5033056;28;20030;-55
2022/01/03 06:14:28;;;;;;;58.55;29.95;;;;;;;;;;5032722;28;20052;-49
2022/01/03 06:16:54;;;;;;;58.92;29.95;;;;;;;;;;5032956;28;20032;-54
2022/01/03 06:19:21;;;;;;;46.10;26.52;;;;;;;;;;5032903;28;20465;-51
2022/01/03 06:21:48;;;;;;;54.17;28.70;;;;;;;;;;5032975;28;20080;-56
2022/01/03 06:24:15;;;;;;;62.15;31.50;;;;;;;;;;5032963;28;20053;-52
2022/01/03 06:26:41;;;;;;;78.38;35.17;;;;;;;;;;5032576;28;20028;-53
2022/01/03 06:29:08;;;;;;;82.88;39.22;;;;;;;;;;5032591;28;20025;-53
2022/01/03 06:31:34;;;;;;;70.95;35.30;;;;;;;;;;5032728;28;20029;-57
2022/01/03 06:34:01;;;;;;;78.53;38.95;;;;;;;;;;5032177;28;20780;-55
2022/01/03 06:36:27;;;;;;;68.68;35.95;;;;;;;;;;5032726;28;20029;-50
2022/01/03 06:38:54;;;;;;;58.72;31.15;;;;;;;;;;5032772;28;20091;-52
2022/01/03 06:41:20;;;;;;;57.47;32.25;;;;;;;;;;5032230;28;20029;-51
2022/01/03 06:43:46;;;;;;;51.80;27.52;;;;;;;;;;5032051;28;20617;-52
2022/01/03 06:46:12;;;;;;;51.78;28.02;;;;;;;;;;5032741;28;20029;-51
2022/01/03 06:48:38;;;;;;;42.03;24.20;;;;;;;;;;5035964;28;20026;-55
2022/01/03 06:51:05;;;;;;;46.17;26.10;;;;;;;;;;5036193;28;20387;-54
2022/01/03 06:53:31;;;;;;;48.63;28.75;;;;;;;;;;5036242;28;20036;-53
2022/01/03 06:55:57;;;;;;;62.65;31.83;;;;;;;;;;5035569;28;20018;-50
2022/01/03 06:58:24;;;;;;;61.80;33.60;;;;;;;;;;5036055;28;20021;-57
2022/01/03 07:00:50;;;;;;;65.47;33.92;;;;;;;;;;5036116;28;20028;-55
2022/01/03 07:03:16;;;;;;;91.32;49.20;;;;;;;;;;5035741;28;20021;-56
2022/01/03 07:05:42;;;;;;;101.68;51.90;;;;;;;;;;5035773;28;20057;-52
2022/01/03 07:08:09;;;;;;;105.95;56.67;;;;;;;;;;5036027;28;20029;-51
2022/01/03 07:10:35;;;;;;;83.85;45.40;;;;;;;;;;5035368;28;20026;-49
2022/01/03 07:13:01;;;;;;;61.17;33.60;;;;;;;;;;5035616;28;20029;-53
2022/01/03 07:20:57;;;;;;;58.50;31.33;;;;;;;;;;5035787;28;20040;-54
2022/01/03 07:23:23;;;;;;;64.00;34.35;;;;;;;;;;5035474;28;20030;-52
2022/01/03 07:25:50;;;;;;;68.10;36.78;;;;;;;;;;5035324;28;20025;-55
2022/01/03 07:28:17;;;;;;;76.68;41.90;;;;;;;;;;5035297;28;20101;-50
2022/01/03 07:30:43;;;;;;;81.10;42.72;;;;;;;;;;5035533;28;20029;-52
2022/01/03 07:33:10;;;;;;;75.95;43.67;;;;;;;;;;5035553;28;20021;-50
2022/01/03 07:35:36;;;;;;;82.13;43.78;;;;;;;;;;5034868;28;20529;-55
2022/01/03 07:38:03;;;;;;;85.20;41.75;;;;;;;;;;5035454;28;20372;-55
2022/01/03 07:40:29;;;;;;;74.90;40.00;;;;;;;;;;5034713;28;20021;-53
2022/01/03 07:42:56;;;;;;;77.85;40.35;;;;;;;;;;5035400;28;20037;-57
2022/01/03 07:45:22;;;;;;;87.28;46.90;;;;;;;;;;5035024;28;20025;-54
2022/01/03 07:47:48;;;;;;;89.47;50.35;;;;;;;;;;5034544;28;20022;-54
2022/01/03 07:50:14;;;;;;;79.32;44.70;;;;;;;;;;5034907;28;20119;-56
2022/01/03 07:52:41;;;;;;;91.78;46.92;;;;;;;;;;5034816;28;20424;-54
2022/01/03 07:55:09;;;;;;;141.90;76.25;;;;;;;;;;5034765;28;20018;-58
2022/01/03 07:57:35;;;;;;;161.68;91.10;;;;;;;;;;5033784;28;20499;-56
2022/01/03 08:00:01;;;;;;;172.85;97.70;;;;;;;;;;5035130;28;20487;-51
2022/01/03 08:02:29;;;;;;;127.63;73.38;;;;;;;;;;5034606;28;20025;-54
2022/01/03 08:04:55;;;;;;;138.25;74.22;;;;;;;;;;5034777;28;20164;-54
2022/01/03 08:07:21;;;;;;;144.40;77.68;;;;;;;;;;5034686;28;20025;-56
2022/01/03 08:09:47;;;;;;;129.73;69.38;;;;;;;;;;5034282;28;20546;-52
2022/01/03 08:12:13;;;;;;;103.95;59.83;;;;;;;;;;5034385;28;20031;-54
2022/01/03 08:14:40;;;;;;;104.00;57.67;;;;;;;;;;5034435;28;20044;-49
2022/01/03 08:17:06;;;;;;;192.52;106.60;;;;;;;;;;5034389;28;20029;-54
2022/01/03 08:19:32;;;;;;;192.15;103.75;;;;;;;;;;5034742;28;20025;-54
2022/01/03 08:21:58;;;;;;;87.22;50.03;;;;;;;;;;5034540;28;20087;-54
2022/01/03 08:24:24;;;;;;;126.90;72.53;;;;;;;;;;5034084;28;20056;-51
2022/01/03 08:26:50;;;;;;;142.52;76.47;;;;;;;;;;5034348;28;20029;-52
2022/01/03 08:29:17;;;;;;;165.85;91.53;;;;;;;;;;5033666;28;20030;-52
2022/01/03 08:31:43;;;;;;;144.32;82.28;;;;;;;;;;5033896;28;20079;-54
2022/01/03 08:34:09;;;;;;;116.13;68.25;;;;;;;;;;5034285;28;20068;-52
2022/01/03 08:36:35;;;;;;;147.55;86.30;;;;;;;;;;5033919;28;20029;-53
2022/01/03 08:39:25;;;;;;;120.45;70.78;;;;;;;;;;5034192;28;20018;-57
2022/01/03 08:42:05;;;;;;;105.45;58.90;;;;;;;;;;5033618;28;20049;-61
2022/01/03 08:44:31;;;;;;;111.43;62.75;;;;;;;;;;5033996;28;20029;-53
2022/01/03 08:46:57;;;;;;;110.03;58.88;;;;;;;;;;5033848;28;20022;-53
2022/01/03 08:49:24;;;;;;;98.85;58.25;;;;;;;;;;5033764;28;20392;-54
2022/01/03 08:51:50;;;;;;;70.20;43.00;;;;;;;;;;5033802;28;20029;-55
2022/01/03 08:54:16;;;;;;;87.45;50.97;;;;;;;;;;5033972;28;20023;-49
2022/01/03 08:56:42;;;;;;;105.20;62.45;;;;;;;;;;5034289;28;20017;-53
2022/01/03 08:59:08;;;;;;;114.68;67.90;;;;;;;;;;5033336;28;20534;-50
2022/01/03 09:01:34;;;;;;;112.60;65.28;;;;;;;;;;5033900;28;20383;-50
2022/01/03 09:04:00;;;;;;;86.10;49.63;;;;;;;;;;5033604;28;20426;-52
2022/01/03 09:06:27;;;;;;;81.00;44.60;;;;;;;;;;5033454;28;20112;-53
2022/01/03 09:08:54;;;;;;;78.75;43.20;;;;;;;;;;5033114;28;20453;-50
2022/01/03 09:11:20;;;;;;;73.18;42.50;;;;;;;;;;5033160;28;20030;-50
2022/01/03 09:13:47;;;;;;;79.80;43.08;;;;;;;;;;5033475;28;20036;-52
2022/01/03 09:16:13;;;;;;;65.85;38.65;;;;;;;;;;5033348;28;20029;-52
2022/01/03 09:18:40;;;;;;;66.30;37.63;;;;;;;;;;5033401;28;20494;-50
2022/01/03 09:21:09;;;;;;;68.65;39.78;;;;;;;;;;5033913;28;20408;-58
2022/01/03 09:23:40;;;;;;;63.67;34.20;;;;;;;;;;5031733;28;20033;-54
2022/01/03 09:28:52;;;;;;;61.70;34.00;;;;;;;;;;5032408;28;20043;-59
2022/01/03 09:31:21;;;;;;;58.80;36.05;;;;;;;;;;5032246;28;20034;-55
2022/01/03 09:33:48;;;;;;;66.00;38.75;;;;;;;;;;5032384;28;20091;-48
2022/01/03 09:36:15;;;;;;;51.63;33.38;;;;;;;;;;5032990;28;20033;-55
2022/01/03 09:38:45;;;;;;;54.75;32.92;;;;;;;;;;5032789;28;20034;-55
2022/01/03 09:41:25;;;;;;;54.75;34.22;;;;;;;;;;5032482;28;20060;-55
2022/01/03 09:44:11;;;;;;;68.65;41.92;;;;;;;;;;5030657;28;20466;-52
2022/01/03 09:46:42;;;;;;;70.18;40.63;;;;;;;;;;5032177;28;20083;-55
2022/01/03 09:49:09;;;;;;;68.10;40.23;;;;;;;;;;5032477;28;20026;-51
2022/01/03 09:51:35;;;;;;;66.10;41.50;;;;;;;;;;5032142;28;20670;-48
2022/01/03 09:54:03;;;;;;;73.25;42.45;;;;;;;;;;5032816;28;20079;-55
2022/01/03 09:56:31;;;;;;;78.85;42.65;;;;;;;;;;5033182;28;20056;-54
2022/01/03 09:59:00;;;;;;;58.92;37.33;;;;;;;;;;5033044;28;20053;-54
2022/01/03 10:01:26;;;;;;;66.32;38.30;;;;;;;;;;5032800;28;20041;-58
2022/01/03 10:03:52;;;;;;;76.97;45.72;;;;;;;;;;5031647;28;20435;-55
2022/01/03 10:06:20;;;;;;;80.65;51.25;;;;;;;;;;5032466;28;20037;-57
2022/01/03 10:08:53;;;;;;;79.47;45.97;;;;;;;;;;5032130;28;20033;-59
2022/01/03 10:11:23;;;;;;;59.90;36.60;;;;;;;;;;5013225;28;20037;-56
2022/01/03 10:13:49;;;;;;;58.00;35.53;;;;;;;;;;5012951;28;20461;-50
2022/01/03 10:16:15;;;;;;;55.80;34.08;;;;;;;;;;5029347;28;20048;-59
2022/01/03 10:18:42;;;;;;;56.08;32.53;;;;;;;;;;5032676;28;20519;-56
2022/01/03 10:21:08;;;;;;;52.88;31.15;;;;;;;;;;5034494;28;20039;-56
2022/01/03 10:23:35;;;;;;;58.72;34.92;;;;;;;;;;5036328;28;20021;-59
2022/01/03 10:26:18;;;;;;;55.47;33.90;;;;;;;;;;5036672;28;20039;-60
2022/01/03 10:28:44;;;;;;;52.00;33.47;;;;;;;;;;5036418;28;20034;-58
2022/01/03 10:31:15;;;;;;;59.65;37.40;;;;;;;;;;5036545;28;20116;-58
2022/01/03 10:33:41;;;;;;;57.20;37.17;;;;;;;;;;5036378;28;20488;-60
2022/01/03 10:36:11;;;;;;;52.33;34.10;;;;;;;;;;5036387;28;20487;-60
2022/01/03 10:38:41;;;;;;;70.72;44.40;;;;;;;;;;5036575;28;20014;-54
2022/01/03 10:41:14;;;;;;;77.75;45.30;;;;;;;;;;5036020;28;20017;-55
2022/01/03 10:43:41;;;;;;;74.18;47.60;;;;;;;;;;5034201;28;20045;-59
2022/01/03 10:46:23;;;;;;;74.75;45.42;;;;;;;;;;5035844;28;20456;-57
2022/01/03 10:48:51;;;;;;;67.20;43.20;;;;;;;;;;5034525;28;20033;-53
2022/01/03 10:51:22;;;;;;;86.80;55.25;;;;;;;;;;5035684;28;20061;-56
2022/01/03 10:53:51;;;;;;;104.95;65.22;;;;;;;;;;5035722;28;20033;-53
2022/01/03 10:56:28;;;;;;;78.65;50.38;;;;;;;;;;5035349;28;20045;-49
2022/01/03 10:58:56;;;;;;;83.18;48.88;;;;;;;;;;5033866;28;20061;-57
2022/01/03 11:01:22;;;;;;;64.93;39.83;;;;;;;;;;5032628;28;20028;-57
2022/01/03 11:03:49;;;;;;;63.03;37.75;;;;;;;;;;5035045;28;20036;-57
2022/01/03 11:11:39;;;;;;;60.22;36.92;;;;;;;;;;5035674;28;20072;-58
2022/01/03 11:14:06;;;;;;;53.53;31.08;;;;;;;;;;5036638;28;20030;-60
2022/01/03 11:16:36;;;;;;;51.35;28.98;;;;;;;;;;5036039;28;20022;-52
2022/01/03 11:19:03;;;;;;;52.65;32.20;;;;;;;;;;5035706;28;20041;-59
2022/01/03 11:21:30;;;;;;;48.05;30.27;;;;;;;;;;5035697;28;20048;-61
2022/01/03 11:24:05;;;;;;;45.67;28.90;;;;;;;;;;5035406;28;20026;-61
2022/01/03 11:26:33;;;;;;;46.33;29.20;;;;;;;;;;5035070;28;20107;-61
2022/01/03 11:29:03;;;;;;;47.38;31.42;;;;;;;;;;5035391;28;20035;-59
2022/01/03 11:31:33;;;;;;;46.15;28.77;;;;;;;;;;5034767;28;20391;-60
2022/01/03 11:33:59;;;;;;;47.30;28.52;;;;;;;;;;5034673;28;20057;-61
2022/01/03 11:36:26;;;;;;;41.75;28.92;;;;;;;;;;5035079;28;20022;-64
2022/01/03 11:38:54;;;;;;;41.45;26.48;;;;;;;;;;5017632;28;20068;-61
2022/01/03 11:41:21;;;;;;;44.85;29.95;;;;;;;;;;5035007;28;20373;-61
2022/01/03 11:43:48;;;;;;;45.95;28.42;;;;;;;;;;5035579;28;20057;-61
2022/01/03 11:46:14;;;;;;;47.15;28.23;;;;;;;;;;5034988;28;20033;-60
2022/01/03 11:48:40;;;;;;;39.45;24.27;;;;;;;;;;5035209;28;20021;-62
2022/01/03 11:51:10;;;;;;;38.45;22.67;;;;;;;;;;5034665;28;20025;-61
2022/01/03 11:53:38;;;;;;;49.90;30.27;;;;;;;;;;5034809;28;20036;-64
2022/01/03 11:56:05;;;;;;;40.95;26.38;;;;;;;;;;5035161;28;20093;-64
2022/01/03 12:04:21;;;;;;;37.67;23.75;;;;;;;;;;5034913;28;20071;-64
2022/01/03 12:06:47;;;;;;;46.45;26.48;;;;;;;;;;5034484;28;20022;-64
2022/01/03 12:09:15;;;;;;;46.10;27.60;;;;;;;;;;5034799;28;20030;-62
2022/01/03 12:11:54;;;;;;;47.38;30.00;;;;;;;;;;5034741;28;20033;-62
2022/01/03 12:14:38;;;;;;;51.05;29.42;;;;;;;;;;5034216;28;20036;-62
2022/01/03 12:17:05;;;;;;;56.20;33.92;;;;;;;;;;5034627;28;20036;-63
2022/01/03 12:19:36;;;;;;;46.20;29.83;;;;;;;;;;5034825;28;20354;-63
2022/01/03 12:22:07;;;;;;;55.42;33.58;;;;;;;;;;5034105;28;20028;-68
2022/01/03 12:24:33;;;;;;;65.90;39.20;;;;;;;;;;5034494;28;20026;-61
2022/01/03 12:27:11;;;;;;;79.47;45.10;;;;;;;;;;5034358;28;20025;-66
2022/01/03 12:29:56;;;;;;;92.97;51.67;;;;;;;;;;5034145;28;20044;-63
2022/01/03 12:32:25;;;;;;;94.43;54.65;;;;;;;;;;5034462;28;20037;-54
2022/01/03 12:35:06;;;;;;;85.40;48.83;;;;;;;;;;5034046;28;20025;-59
2022/01/03 12:37:33;;;;;;;89.00;53.70;;;;;;;;;;5034451;28;20021;-53
2022/01/03 12:40:03;;;;;;;90.53;52.75;;;;;;;;;;5034331;28;20022;-63
2022/01/03 12:42:51;;;;;;;86.07;53.13;;;;;;;;;;5033603;28;20025;-60
2022/01/03 12:45:42;;;;;;;84.75;50.90;;;;;;;;;;5034372;28;20026;-51
2022/01/03 12:48:09;;;;;;;90.85;53.47;;;;;;;;;;5033721;28;20552;-57
2022/01/03 12:50:55;;;;;;;80.07;48.88;;;;;;;;;;5033375;28;20029;-52
2022/01/03 12:53:27;;;;;;;78.05;46.72;;;;;;;;;;5020305;28;20564;-58
2022/01/03 12:55:54;;;;;;;72.13;43.05;;;;;;;;;;5033656;28;20036;-57
2022/01/03 12:58:20;;;;;;;63.08;39.97;;;;;;;;;;5034023;28;20033;-59
2022/01/03 13:00:47;;;;;;;62.30;38.90;;;;;;;;;;5033838;28;20468;-59
2022/01/03 13:03:19;;;;;;;64.38;39.92;;;;;;;;;;5033313;28;20032;-55
2022/01/03 13:06:05;;;;;;;60.40;36.22;;;;;;;;;;5033721;28;20025;-60
2022/01/03 13:08:42;;;;;;;58.13;34.97;;;;;;;;;;5033357;28;20084;-55
2022/01/03 13:11:12;;;;;;;47.80;28.10;;;;;;;;;;5033422;28;20464;-60
2022/01/03 13:13:39;;;;;;;44.10;26.90;;;;;;;;;;5033304;28;20364;-59
2022/01/03 13:16:25;;;;;;;40.45;25.80;;;;;;;;;;5033740;28;20028;-60
2022/01/03 13:18:52;;;;;;;42.28;26.63;;;;;;;;;;5033708;28;20092;-59
2022/01/03 13:21:19;;;;;;;48.22;29.17;;;;;;;;;;5033439;28;20372;-59
2022/01/03 13:23:55;;;;;;;48.45;28.58;;;;;;;;;;5033532;28;20053;-53
2022/01/03 13:26:22;;;;;;;56.80;31.17;;;;;;;;;;5033610;28;20044;-62
2022/01/03 13:28:49;;;;;;;52.25;30.80;;;;;;;;;;5033361;28;20021;-56
2022/01/03 13:31:15;;;;;;;53.03;30.95;;;;;;;;;;5032822;28;20030;-60
2022/01/03 13:33:41;;;;;;;55.25;32.03;;;;;;;;;;5033453;28;20036;-61
2022/01/03 13:36:07;;;;;;;56.15;30.88;;;;;;;;;;5033502;28;20022;-62
2022/01/03 13:38:34;;;;;;;56.85;33.25;;;;;;;;;;5033225;28;20025;-56
2022/01/03 13:41:19;;;;;;;57.70;33.22;;;;;;;;;;5033813;28;20021;-54
2022/01/03 13:43:54;;;;;;;55.95;31.20;;;;;;;;;;5033619;28;20129;-50
2022/01/03 13:49:13;;;;;;;62.08;34.53;;;;;;;;;;5033528;28;20490;-53
2022/01/03 13:51:46;;;;;;;62.55;33.95;;;;;;;;;;5032970;28;20476;-51
2022/01/03 13:54:24;;;;;;;55.05;33.08;;;;;;;;;;5033392;28;20075;-53
2022/01/03 13:56:51;;;;;;;48.17;28.48;;;;;;;;;;5036190;28;20461;-55
2022/01/03 13:59:18;;;;;;;51.92;28.63;;;;;;;;;;5036618;28;20034;-49
2022/01/03 14:01:45;;;;;;;50.97;30.02;;;;;;;;;;5037286;28;20034;-56
2022/01/03 14:04:11;;;;;;;64.28;33.50;;;;;;;;;;5037161;28;20151;-49
2022/01/03 14:06:37;;;;;;;60.88;34.42;;;;;;;;;;5037008;28;20030;-53
2022/01/03 14:09:10;;;;;;;63.33;33.15;;;;;;;;;;5036377;28;20029;-53
2022/01/03 14:11:36;;;;;;;61.40;34.08;;;;;;;;;;5028454;28;20021;-51
2022/01/03 14:14:13;;;;;;;59.80;34.70;;;;;;;;;;5036684;28;20059;-52
2022/01/03 14:16:55;;;;;;;61.63;33.70;;;;;;;;;;5036715;28;20030;-51
2022/01/03 14:19:25;;;;;;;60.38;32.65;;;;;;;;;;5036650;28;20465;-53
2022/01/03 14:21:51;;;;;;;52.00;30.75;;;;;;;;;;5036692;28;20029;-53
2022/01/03 14:24:24;;;;;;;55.25;31.13;;;;;;;;;;5036849;28;20113;-56
2022/01/03 14:26:55;;;;;;;52.50;28.10;;;;;;;;;;5036222;28;20104;-49
2022/01/03 14:29:21;;;;;;;40.85;24.63;;;;;;;;;;5036721;28;20029;-56
2022/01/03 14:31:49;;;;;;;39.35;21.40;;;;;;;;;;5036572;28;20025;-53
2022/01/03 14:34:19;;;;;;;34.55;19.92;;;;;;;;;;5036138;28;20029;-50
2022/01/03 14:36:45;;;;;;;41.67;22.05;;;;;;;;;;5036885;28;20495;-53
2022/01/03 14:39:11;;;;;;;43.03;24.75;;;;;;;;;;5036661;28;20037;-54